sensor_id;sensor_type;location;lat;lon;timestamp;P1;durP1;ratioP1;P2;durP2;ratioP2
77148;SDS011;66122;47.130;16.844;2023-07-24T00:01:37;0.90;;;0.43;;
77148;SDS011;66122;47.130;16.844;2023-07-24T00:11:40;0.55;;;0.45;;
77148;SDS011;66122;47.130;16.844;2023-07-24T00:21:43;0.90;;;0.90;;
77148;SDS011;66122;47.130;16.844;2023-07-24T00:31:46;0.60;;;0.50;;
77148;SDS011;66122;47.130;16.844;2023-07-24T00:41:48;0.60;;;0.50;;
77148;SDS011;66122;47.130;16.844;2023-07-24T00:51:52;0.75;;;0.55;;
77148;SDS011;66122;47.130;16.844;2023-07-24T01:01:55;0.60;;;0.50;;
77148;SDS011;66122;47.130;16.844;2023-07-24T01:12:20;0.80;;;0.70;;
77148;SDS011;66122;47.130;16.844;2023-07-24T01:32:32;0.90;;;0.77;;
77148;SDS011;66122;47.130;16.844;2023-07-24T01:42:35;1.17;;;0.60;;
77148;SDS011;66122;47.130;16.844;2023-07-24T01:52:38;0.60;;;0.40;;
77148;SDS011;66122;47.130;16.844;2023-07-24T02:02:41;0.60;;;0.43;;
77148;SDS011;66122;47.130;16.844;2023-07-24T02:12:43;0.90;;;0.80;;
77148;SDS011;66122;47.130;16.844;2023-07-24T02:22:46;0.50;;;0.33;;
77148;SDS011;66122;47.130;16.844;2023-07-24T02:32:49;0.70;;;0.45;;
77148;SDS011;66122;47.130;16.844;2023-07-24T02:42:51;1.77;;;0.83;;
77148;SDS011;66122;47.130;16.844;2023-07-24T02:52:54;0.70;;;0.60;;
77148;SDS011;66122;47.130;16.844;2023-07-24T03:02:57;0.52;;;0.40;;
77148;SDS011;66122;47.130;16.844;2023-07-24T03:12:59;0.60;;;0.50;;
77148;SDS011;66122;47.130;16.844;2023-07-24T03:23:03;0.60;;;0.40;;
77148;SDS011;66122;47.130;16.844;2023-07-24T03:33:05;0.68;;;0.60;;
77148;SDS011;66122;47.130;16.844;2023-07-24T03:43:09;0.50;;;0.33;;
77148;SDS011;66122;47.130;16.844;2023-07-24T03:53:12;0.63;;;0.57;;
77148;SDS011;66122;47.130;16.844;2023-07-24T04:03:15;0.50;;;0.40;;
77148;SDS011;66122;47.130;16.844;2023-07-24T04:13:18;0.45;;;0.32;;
77148;SDS011;66122;47.130;16.844;2023-07-24T04:23:21;1.47;;;1.13;;
77148;SDS011;66122;47.130;16.844;2023-07-24T04:33:24;0.80;;;0.80;;
77148;SDS011;66122;47.130;16.844;2023-07-24T04:43:29;0.75;;;0.65;;
77148;SDS011;66122;47.130;16.844;2023-07-24T04:53:32;0.40;;;0.23;;
77148;SDS011;66122;47.130;16.844;2023-07-24T05:03:34;0.90;;;0.80;;
77148;SDS011;66122;47.130;16.844;2023-07-24T05:13:37;1.08;;;0.98;;
77148;SDS011;66122;47.130;16.844;2023-07-24T05:23:40;0.80;;;0.70;;
77148;SDS011;66122;47.130;16.844;2023-07-24T05:33:42;4.10;;;1.17;;
77148;SDS011;66122;47.130;16.844;2023-07-24T05:43:45;0.80;;;0.50;;
77148;SDS011;66122;47.130;16.844;2023-07-24T05:53:47;1.27;;;1.10;;
77148;SDS011;66122;47.130;16.844;2023-07-24T06:03:50;1.03;;;0.87;;
77148;SDS011;66122;47.130;16.844;2023-07-24T06:13:53;1.03;;;0.93;;
77148;SDS011;66122;47.130;16.844;2023-07-24T06:23:57;2.53;;;1.50;;
77148;SDS011;66122;47.130;16.844;2023-07-24T06:33:59;0.60;;;0.60;;
77148;SDS011;66122;47.130;16.844;2023-07-24T06:44:02;2.43;;;1.53;;
77148;SDS011;66122;47.130;16.844;2023-07-24T06:54:05;1.33;;;1.23;;
77148;SDS011;66122;47.130;16.844;2023-07-24T07:04:09;2.30;;;2.10;;
77148;SDS011;66122;47.130;16.844;2023-07-24T07:14:12;3.17;;;1.23;;
77148;SDS011;66122;47.130;16.844;2023-07-24T07:24:15;2.67;;;1.17;;
77148;SDS011;66122;47.130;16.844;2023-07-24T07:34:17;0.93;;;0.85;;
77148;SDS011;66122;47.130;16.844;2023-07-24T07:44:20;1.50;;;1.17;;
77148;SDS011;66122;47.130;16.844;2023-07-24T07:54:23;2.37;;;1.13;;
77148;SDS011;66122;47.130;16.844;2023-07-24T08:04:26;0.95;;;0.85;;
77148;SDS011;66122;47.130;16.844;2023-07-24T08:14:29;0.90;;;0.80;;
77148;SDS011;66122;47.130;16.844;2023-07-24T08:24:35;1.40;;;1.30;;
77148;SDS011;66122;47.130;16.844;2023-07-24T08:34:39;1.30;;;1.08;;
77148;SDS011;66122;47.130;16.844;2023-07-24T08:44:41;1.10;;;0.90;;
77148;SDS011;66122;47.130;16.844;2023-07-24T08:54:44;1.30;;;1.20;;
77148;SDS011;66122;47.130;16.844;2023-07-24T09:04:50;1.20;;;1.10;;
77148;SDS011;66122;47.130;16.844;2023-07-24T09:15:02;1.20;;;1.10;;
77148;SDS011;66122;47.130;16.844;2023-07-24T09:25:08;1.57;;;1.40;;
77148;SDS011;66122;47.130;16.844;2023-07-24T09:35:17;1.88;;;1.58;;
77148;SDS011;66122;47.130;16.844;2023-07-24T09:45:20;1.50;;;1.40;;
77148;SDS011;66122;47.130;16.844;2023-07-24T09:55:25;1.50;;;1.40;;
77148;SDS011;66122;47.130;16.844;2023-07-24T10:05:37;2.05;;;1.02;;
77148;SDS011;66122;47.130;16.844;2023-07-24T10:15:41;1.57;;;1.47;;
77148;SDS011;66122;47.130;16.844;2023-07-24T10:25:45;1.83;;;1.50;;
77148;SDS011;66122;47.130;16.844;2023-07-24T10:35:53;1.45;;;1.33;;
77148;SDS011;66122;47.130;16.844;2023-07-24T10:45:56;1.67;;;1.57;;
77148;SDS011;66122;47.130;16.844;2023-07-24T10:55:59;1.93;;;1.83;;
77148;SDS011;66122;47.130;16.844;2023-07-24T11:06:04;2.35;;;1.88;;
77148;SDS011;66122;47.130;16.844;2023-07-24T11:16:07;2.80;;;1.83;;
77148;SDS011;66122;47.130;16.844;2023-07-24T11:26:10;2.67;;;2.47;;
77148;SDS011;66122;47.130;16.844;2023-07-24T11:36:13;2.20;;;1.50;;
77148;SDS011;66122;47.130;16.844;2023-07-24T11:46:25;2.77;;;2.57;;
77148;SDS011;66122;47.130;16.844;2023-07-24T11:56:29;2.13;;;2.03;;
77148;SDS011;66122;47.130;16.844;2023-07-24T12:06:32;2.00;;;1.80;;
77148;SDS011;66122;47.130;16.844;2023-07-24T12:16:35;1.43;;;1.17;;
77148;SDS011;66122;47.130;16.844;2023-07-24T12:26:38;3.15;;;2.90;;
77148;SDS011;66122;47.130;16.844;2023-07-24T12:36:40;4.30;;;2.20;;
77148;SDS011;66122;47.130;16.844;2023-07-24T12:46:43;2.70;;;2.50;;
77148;SDS011;66122;47.130;16.844;2023-07-24T12:56:46;2.63;;;1.70;;
77148;SDS011;66122;47.130;16.844;2023-07-24T13:06:49;2.30;;;2.17;;
77148;SDS011;66122;47.130;16.844;2023-07-24T13:16:52;2.40;;;2.20;;
77148;SDS011;66122;47.130;16.844;2023-07-24T13:26:55;2.40;;;2.05;;
77148;SDS011;66122;47.130;16.844;2023-07-24T13:36:58;2.93;;;2.63;;
77148;SDS011;66122;47.130;16.844;2023-07-24T13:47:00;1.70;;;1.60;;
77148;SDS011;66122;47.130;16.844;2023-07-24T13:57:03;3.40;;;1.97;;
77148;SDS011;66122;47.130;16.844;2023-07-24T14:07:07;4.20;;;2.42;;
77148;SDS011;66122;47.130;16.844;2023-07-24T14:17:10;1.53;;;1.43;;
77148;SDS011;66122;47.130;16.844;2023-07-24T14:27:13;1.67;;;1.57;;
77148;SDS011;66122;47.130;16.844;2023-07-24T14:37:16;1.80;;;1.52;;
77148;SDS011;66122;47.130;16.844;2023-07-24T14:47:19;1.93;;;1.83;;
77148;SDS011;66122;47.130;16.844;2023-07-24T14:57:21;2.17;;;1.67;;
77148;SDS011;66122;47.130;16.844;2023-07-24T15:07:27;3.05;;;1.92;;
77148;SDS011;66122;47.130;16.844;2023-07-24T15:17:30;1.70;;;1.60;;
77148;SDS011;66122;47.130;16.844;2023-07-24T15:27:32;2.50;;;1.63;;
77148;SDS011;66122;47.130;16.844;2023-07-24T15:37:35;2.03;;;1.85;;
77148;SDS011;66122;47.130;16.844;2023-07-24T15:47:38;0.90;;;0.77;;
77148;SDS011;66122;47.130;16.844;2023-07-24T15:57:41;1.63;;;1.53;;
77148;SDS011;66122;47.130;16.844;2023-07-24T16:07:43;2.05;;;1.00;;
77148;SDS011;66122;47.130;16.844;2023-07-24T16:17:46;2.37;;;1.50;;
77148;SDS011;66122;47.130;16.844;2023-07-24T16:27:53;1.33;;;0.90;;
77148;SDS011;66122;47.130;16.844;2023-07-24T16:37:56;2.05;;;1.42;;
77148;SDS011;66122;47.130;16.844;2023-07-24T16:47:59;0.80;;;0.73;;
77148;SDS011;66122;47.130;16.844;2023-07-24T16:58:04;1.43;;;1.30;;
77148;SDS011;66122;47.130;16.844;2023-07-24T17:08:07;1.10;;;1.00;;
77148;SDS011;66122;47.130;16.844;2023-07-24T17:18:10;2.55;;;2.30;;
77148;SDS011;66122;47.130;16.844;2023-07-24T17:28:13;1.33;;;1.23;;
77148;SDS011;66122;47.130;16.844;2023-07-24T17:38:27;1.83;;;1.33;;
77148;SDS011;66122;47.130;16.844;2023-07-24T17:48:32;2.45;;;1.35;;
77148;SDS011;66122;47.130;16.844;2023-07-24T17:58:36;1.27;;;1.03;;
77148;SDS011;66122;47.130;16.844;2023-07-24T18:08:39;0.90;;;0.50;;
77148;SDS011;66122;47.130;16.844;2023-07-24T18:18:42;1.23;;;1.08;;
77148;SDS011;66122;47.130;16.844;2023-07-24T18:28:44;1.17;;;1.07;;
77148;SDS011;66122;47.130;16.844;2023-07-24T18:38:53;1.03;;;0.80;;
77148;SDS011;66122;47.130;16.844;2023-07-24T18:48:56;1.77;;;1.63;;
77148;SDS011;66122;47.130;16.844;2023-07-24T18:58:59;0.90;;;0.77;;
77148;SDS011;66122;47.130;16.844;2023-07-24T19:09:01;1.13;;;0.77;;
77148;SDS011;66122;47.130;16.844;2023-07-24T19:19:04;3.20;;;2.30;;
77148;SDS011;66122;47.130;16.844;2023-07-24T19:29:10;1.23;;;0.95;;
77148;SDS011;66122;47.130;16.844;2023-07-24T19:39:12;1.47;;;1.27;;
77148;SDS011;66122;47.130;16.844;2023-07-24T19:49:15;1.03;;;0.93;;
77148;SDS011;66122;47.130;16.844;2023-07-24T19:59:18;1.83;;;1.27;;
77148;SDS011;66122;47.130;16.844;2023-07-24T20:09:29;2.07;;;1.30;;
77148;SDS011;66122;47.130;16.844;2023-07-24T20:19:34;1.27;;;1.17;;
77148;SDS011;66122;47.130;16.844;2023-07-24T20:29:37;2.10;;;1.00;;
77148;SDS011;66122;47.130;16.844;2023-07-24T20:39:41;1.40;;;1.23;;
77148;SDS011;66122;47.130;16.844;2023-07-24T20:49:43;1.20;;;0.90;;
77148;SDS011;66122;47.130;16.844;2023-07-24T20:59:46;0.70;;;0.70;;
77148;SDS011;66122;47.130;16.844;2023-07-24T21:09:49;0.82;;;0.52;;
77148;SDS011;66122;47.130;16.844;2023-07-24T21:19:54;0.63;;;0.53;;
77148;SDS011;66122;47.130;16.844;2023-07-24T21:29:57;1.77;;;0.77;;
77148;SDS011;66122;47.130;16.844;2023-07-24T21:40:00;1.00;;;0.82;;
77148;SDS011;66122;47.130;16.844;2023-07-24T21:50:03;0.73;;;0.70;;
77148;SDS011;66122;47.130;16.844;2023-07-24T22:00:06;2.90;;;1.80;;
77148;SDS011;66122;47.130;16.844;2023-07-24T22:10:20;0.70;;;0.27;;
77148;SDS011;66122;47.130;16.844;2023-07-24T22:20:25;0.50;;;0.38;;
77148;SDS011;66122;47.130;16.844;2023-07-24T22:30:41;0.50;;;0.30;;
77148;SDS011;66122;47.130;16.844;2023-07-24T22:40:44;1.30;;;0.47;;
77148;SDS011;66122;47.130;16.844;2023-07-24T22:50:46;0.47;;;0.32;;
77148;SDS011;66122;47.130;16.844;2023-07-24T23:00:50;0.80;;;0.67;;
77148;SDS011;66122;47.130;16.844;2023-07-24T23:10:52;0.50;;;0.30;;
77148;SDS011;66122;47.130;16.844;2023-07-24T23:21:00;0.63;;;0.43;;
77148;SDS011;66122;47.130;16.844;2023-07-24T23:31:06;0.50;;;0.40;;
77148;SDS011;66122;47.130;16.844;2023-07-24T23:41:09;0.40;;;0.30;;
77148;SDS011;66122;47.130;16.844;2023-07-24T23:51:18;0.47;;;0.33;;
